Latest Weather Observations for Point Wilson

IDV60901

Issued at 9:11 pm EDT Sunday 4 December 2016 (issued every 10 minutes, with the page automatically refreshed every 10 minutes)

About weather observations | Map of Melbourne area stations | Latest observations for Melbourne area | Other Formats
Station Details ID: 087166 Name: POINT WILSON Lat: -38.10 Lon: 144.54 Height: 18.0 m
Data from the previous 72 hours. | See also: Recent months for locations in Victoria
Date/Time
EDT
Temp
°C
App
Temp
°C
Dew
Point
°C
Rel
Hum
%
Delta-T
°C
Wind Press
QNH
hPa
Press
MSL
hPa
Rain since
9am
mm
Dir  Spd
km/h
Gust
km/h
Spd
kts
Gust
kts
04/09:00pm - - - - - NE 20 24 11 13 - - -
04/08:30pm - - - - - NNE 28 32 15 17 - - -
04/08:00pm - - - - - NNE 30 35 16 19 - - -
04/07:47pm - - - - - NNE 28 39 15 21 - - -
04/07:30pm - - - - - ENE 17 20 9 11 - - -
04/07:00pm - - - - - N 13 17 7 9 - - -
04/06:30pm - - - - - NW 24 33 13 18 - - -
04/06:28pm - - - - - NW 26 33 14 18 - - -
04/06:00pm - - - - - WNW 43 59 23 32 - - -
04/05:39pm - - - - - WNW 35 69 19 37 - - -
04/05:37pm - - - - - NW 30 59 16 32 - - -
04/05:30pm - - - - - NNW 24 32 13 17 - - -
04/05:00pm - - - - - E 17 22 9 12 - - -
04/04:30pm - - - - - S 15 17 8 9 - - -
04/04:00pm - - - - - ESE 11 13 6 7 - - -
04/03:30pm - - - - - ENE 6 17 3 9 - - -
04/03:00pm - - - - - ENE 11 19 6 10 - - -
04/02:30pm - - - - - ENE 6 11 3 6 - - -
04/02:00pm - - - - - ENE 2 7 1 4 - - -
04/01:30pm - - - - - E 11 15 6 8 - - -
04/01:00pm - - - - - ENE 2 7 1 4 - - -
04/12:30pm - - - - - ENE 4 7 2 4 - - -
04/12:00pm - - - - - ENE 9 13 5 7 - - -
04/11:30am - - - - - E 15 17 8 9 - - -
04/11:00am - - - - - ENE 17 19 9 10 - - -
04/10:30am - - - - - E 19 20 10 11 - - -
04/10:00am - - - - - E 15 17 8 9 - - -
04/09:30am - - - - - ENE 13 15 7 8 - - -
04/09:00am - - - - - ENE 13 17 7 9 - - -
04/08:30am - - - - - NE 15 17 8 9 - - -
04/08:00am - - - - - NE 13 15 7 8 - - -
04/07:30am - - - - - NNE 9 11 5 6 - - -
04/07:00am - - - - - N 11 13 6 7 - - -
04/06:30am - - - - - N 11 13 6 7 - - -
04/06:00am - - - - - NNW 9 11 5 6 - - -
04/05:30am - - - - - E 15 19 8 10 - - -
04/05:00am - - - - - ESE 11 13 6 7 - - -
04/04:30am - - - - - ESE 13 17 7 9 - - -
04/04:00am - - - - - ESE 15 19 8 10 - - -
04/03:30am - - - - - ESE 17 20 9 11 - - -
04/03:00am - - - - - ESE 15 19 8 10 - - -
04/02:30am - - - - - ESE 13 17 7 9 - - -
04/02:00am - - - - - ESE 13 17 7 9 - - -
04/01:30am - - - - - ESE 13 17 7 9 - - -
04/01:00am - - - - - ESE 15 17 8 9 - - -
04/12:30am - - - - - SE 13 17 7 9 - - -
04/12:00am - - - - - SE 11 15 6 8 - - -
 
Date/Time
EDT
Temp
°C
App
Temp
°C
Dew
Point
°C
Rel
Hum
%
Delta-T
°C
Wind Press
QNH
hPa
Press
MSL
hPa
Rain since
9am
mm
Dir  Spd
km/h
Gust
km/h
Spd
kts
Gust
kts
03/11:30pm - - - - - SSE 9 11 5 6 - - -
03/11:00pm - - - - - S 11 13 6 7 - - -
03/10:30pm - - - - - SE 17 20 9 11 - - -
03/10:00pm - - - - - SE 13 19 7 10 - - -
03/09:30pm - - - - - SE 15 20 8 11 - - -
03/09:00pm - - - - - SE 17 19 9 10 - - -
03/08:30pm - - - - - ESE 19 20 10 11 - - -
03/08:00pm - - - - - ESE 22 24 12 13 - - -
03/07:30pm - - - - - SE 19 22 10 12 - - -
03/07:00pm - - - - - SE 20 24 11 13 - - -
03/06:30pm - - - - - SE 19 20 10 11 - - -
03/06:00pm - - - - - SE 17 19 9 10 - - -
03/05:30pm - - - - - SE 20 24 11 13 - - -
03/05:00pm - - - - - SE 20 24 11 13 - - -
03/04:30pm - - - - - ESE 20 24 11 13 - - -
03/04:00pm - - - - - E 17 20 9 11 - - -
03/03:30pm - - - - - E 17 20 9 11 - - -
03/03:00pm - - - - - E 17 19 9 10 - - -
03/02:30pm - - - - - E 19 20 10 11 - - -
03/02:00pm - - - - - E 19 20 10 11 - - -
03/01:30pm - - - - - E 20 24 11 13 - - -
03/01:00pm - - - - - ENE 24 26 13 14 - - -
03/12:30pm - - - - - ENE 24 26 13 14 - - -
03/12:00pm - - - - - ENE 19 20 10 11 - - -
03/11:30am - - - - - ENE 17 20 9 11 - - -
03/11:00am - - - - - NE 13 19 7 10 - - -
03/10:30am - - - - - NE 15 19 8 10 - - -
03/10:00am - - - - - NE 13 24 7 13 - - -
03/09:30am - - - - - NE 17 19 9 10 - - -
03/09:00am - - - - - E 15 20 8 11 - - -
03/08:30am - - - - - SSW 7 11 4 6 - - -
03/08:00am - - - - - SSW 9 13 5 7 - - -
03/07:30am - - - - - SW 11 13 6 7 - - -
03/07:00am - - - - - SW 13 15 7 8 - - -
03/06:30am - - - - - SW 11 13 6 7 - - -
03/06:00am - - - - - W 13 15 7 8 - - -
03/05:30am - - - - - SW 2 9 1 5 - - -
03/05:00am - - - - - SSW 9 11 5 6 - - -
03/04:30am - - - - - SSW 11 13 6 7 - - -
03/04:00am - - - - - SW 11 13 6 7 - - -
03/03:30am - - - - - SW 11 13 6 7 - - -
03/03:00am - - - - - SW 9 13 5 7 - - -
03/02:30am - - - - - S 11 13 6 7 - - -
03/02:00am - - - - - S 13 15 7 8 - - -
03/01:30am - - - - - S 11 13 6 7 - - -
03/01:00am - - - - - S 13 15 7 8 - - -
03/12:30am - - - - - SSE 13 15 7 8 - - -
03/12:00am - - - - - S 13 17 7 9 - - -
 
Date/Time
EDT
Temp
°C
App
Temp
°C
Dew
Point
°C
Rel
Hum
%
Delta-T
°C
Wind Press
QNH
hPa
Press
MSL
hPa
Rain since
9am
mm
Dir  Spd
km/h
Gust
km/h
Spd
kts
Gust
kts
02/11:30pm - - - - - S 15 19 8 10 - - -
02/11:00pm - - - - - SSE 17 19 9 10 - - -
02/10:30pm - - - - - SSE 17 20 9 11 - - -
02/10:00pm - - - - - S 19 20 10 11 - - -
02/09:30pm - - - - - S 17 20 9 11 - - -
02/09:00pm - - - - - S 20 26 11 14 - - -
02/08:30pm - - - - - S 24 28 13 15 - - -
02/08:00pm - - - - - SSW 26 32 14 17 - - -
02/07:30pm - - - - - S 28 32 15 17 - - -
02/07:00pm - - - - - S 30 35 16 19 - - -
02/06:30pm - - - - - S 28 32 15 17 - - -
02/06:00pm - - - - - S 32 37 17 20 - - -
02/05:30pm - - - - - S 32 37 17 20 - - -
02/05:00pm - - - - - S 32 37 17 20 - - -
02/04:30pm - - - - - S 30 37 16 20 - - -
02/04:00pm - - - - - S 28 32 15 17 - - -
02/03:30pm - - - - - S 30 37 16 20 - - -
02/03:00pm - - - - - S 32 35 17 19 - - -
02/02:30pm - - - - - S 28 32 15 17 - - -
02/02:00pm - - - - - SSW 32 39 17 21 - - -
02/01:30pm - - - - - S 32 39 17 21 - - -
02/01:00pm - - - - - WSW 20 26 11 14 - - -
02/12:30pm - - - - - WSW 20 28 11 15 - - -
02/12:00pm - - - - - WSW 24 35 13 19 - - -
02/11:30am - - - - - WSW 28 35 15 19 - - -
02/11:00am - - - - - WSW 20 24 11 13 - - -
02/10:30am - - - - - W 13 20 7 11 - - -
02/10:00am - - - - - WSW 17 20 9 11 - - -
02/09:30am - - - - - W 15 20 8 11 - - -
02/09:00am - - - - - W 19 20 10 11 - - -
02/08:30am - - - - - W 24 28 13 15 - - -
02/08:00am - - - - - WSW 24 30 13 16 - - -
02/07:30am - - - - - WSW 24 28 13 15 - - -
02/07:00am - - - - - W 22 28 12 15 - - -
02/06:30am - - - - - W 19 24 10 13 - - -
02/06:00am - - - - - W 17 20 9 11 - - -
02/05:30am - - - - - W 19 24 10 13 - - -
02/05:00am - - - - - WSW 22 26 12 14 - - -
02/04:30am - - - - - WSW 24 28 13 15 - - -
02/04:00am - - - - - W 20 28 11 15 - - -
02/03:30am - - - - - W 17 22 9 12 - - -
02/03:00am - - - - - WSW 15 19 8 10 - - -
02/02:30am - - - - - SW 9 11 5 6 - - -
02/02:00am - - - - - SW 9 15 5 8 - - -
02/01:30am - - - - - SW 13 17 7 9 - - -
02/01:00am - - - - - SSW 9 13 5 7 - - -
02/12:30am - - - - - SSW 9 11 5 6 - - -
02/12:00am - - - - - S 11 13 6 7 - - -
 
Date/Time
EDT
Temp
°C
App
Temp
°C
Dew
Point
°C
Rel
Hum
%
Delta-T
°C
Wind Press
QNH
hPa
Press
MSL
hPa
Rain since
9am
mm
Dir  Spd
km/h
Gust
km/h
Spd
kts
Gust
kts
01/11:30pm - - - - - SSE 15 17 8 9 - - -
01/11:00pm - - - - - S 13 17 7 9 - - -
01/10:30pm - - - - - S 15 19 8 10 - - -
01/10:00pm - - - - - S 13 17 7 9 - - -
01/09:30pm - - - - - SSE 15 19 8 10 - - -

Latest Capital City Observations: Canberra | Sydney | Melbourne | Brisbane | Adelaide | Perth | Hobart | Darwin

Other Formats:

Comma delimited format used in spreadsheet applications
http://www.bom.gov.au/fwo/IDV60901/IDV60901.94847.axf

JavaScript Object Notation format (JSON) in row-major order
http://www.bom.gov.au/fwo/IDV60901/IDV60901.94847.json